createdAt,value
2017-04-17T00:00:32.415Z,92.20
2017-04-17T00:01:30.867Z,92.30
2017-04-17T00:02:29.306Z,92.30
2017-04-17T00:03:27.493Z,92.40
2017-04-17T00:04:26.739Z,92.30
2017-04-17T00:05:24.933Z,92.40
2017-04-17T00:06:23.118Z,92.40
2017-04-17T00:07:21.298Z,92.50
2017-04-17T00:08:19.486Z,92.50
2017-04-17T00:09:17.691Z,92.50
2017-04-17T00:10:16.012Z,92.60
2017-04-17T00:11:14.191Z,92.70
2017-04-17T00:12:12.392Z,92.70
2017-04-17T00:13:10.578Z,92.80
2017-04-17T00:14:08.796Z,92.80
2017-04-17T00:15:06.979Z,92.80
2017-04-17T00:16:05.181Z,93.00
2017-04-17T00:17:03.366Z,93.00
2017-04-17T00:18:01.559Z,93.00
2017-04-17T00:19:00.039Z,93.00
2017-04-17T00:19:58.311Z,93.10
2017-04-17T00:20:57.259Z,93.00
2017-04-17T00:21:55.471Z,93.00
2017-04-17T00:22:54.403Z,93.10
2017-04-17T00:23:52.600Z,93.10
2017-04-17T00:24:50.778Z,93.10
2017-04-17T00:25:49.704Z,93.40
2017-04-17T00:26:47.926Z,93.10
2017-04-17T00:27:46.180Z,93.00
2017-04-17T00:28:44.367Z,93.00
2017-04-17T00:29:42.639Z,93.00
2017-04-17T00:30:40.939Z,92.90
2017-04-17T00:31:39.129Z,92.80
2017-04-17T00:32:37.370Z,92.80
2017-04-17T00:33:36.299Z,92.80
2017-04-17T00:34:34.491Z,92.70
2017-04-17T00:35:32.675Z,92.80
2017-04-17T00:36:30.918Z,92.90
2017-04-17T00:37:29.115Z,92.90
2017-04-17T00:38:27.357Z,92.90
2017-04-17T00:39:25.580Z,93.00
2017-04-17T00:40:23.775Z,93.00
2017-04-17T00:41:21.983Z,93.00
2017-04-17T00:42:20.928Z,93.00
2017-04-17T00:43:19.133Z,93.00
2017-04-17T00:44:17.341Z,93.10
2017-04-17T00:45:16.314Z,93.10
2017-04-17T00:46:14.512Z,93.20
2017-04-17T00:47:12.715Z,93.20
2017-04-17T00:48:10.915Z,93.30
2017-04-17T00:49:09.115Z,93.30
2017-04-17T00:50:07.320Z,93.30
2017-04-17T00:51:05.552Z,93.70
2017-04-17T00:52:03.768Z,93.40
2017-04-17T00:53:02.043Z,93.50
2017-04-17T00:54:00.267Z,93.40
2017-04-17T00:54:58.471Z,93.40
2017-04-17T00:55:56.674Z,93.40
2017-04-17T00:56:55.053Z,93.50
2017-04-17T00:57:53.264Z,93.40
2017-04-17T00:58:51.471Z,93.30
2017-04-17T00:59:49.683Z,93.30
2017-04-17T01:00:47.888Z,93.30
2017-04-17T01:01:46.103Z,93.30
2017-04-17T01:02:45.347Z,93.30
2017-04-17T01:03:43.551Z,93.40
2017-04-17T01:04:41.744Z,93.30
2017-04-17T01:05:40.012Z,93.30
2017-04-17T01:06:38.246Z,93.30
2017-04-17T01:07:36.454Z,93.40
2017-04-17T01:08:34.675Z,93.40
2017-04-17T01:09:33.094Z,93.50
2017-04-17T01:10:32.044Z,93.40
2017-04-17T01:11:30.252Z,93.40
2017-04-17T01:12:28.819Z,93.80
2017-04-17T01:13:27.135Z,93.60
2017-04-17T01:14:26.115Z,93.60
2017-04-17T01:15:24.321Z,93.70
2017-04-17T01:16:22.524Z,93.70
2017-04-17T01:17:20.732Z,93.70
2017-04-17T01:18:18.943Z,93.70
2017-04-17T01:19:17.147Z,93.70
2017-04-17T01:20:15.375Z,93.70
2017-04-17T01:21:13.854Z,93.70
2017-04-17T01:22:12.064Z,93.80
2017-04-17T01:23:10.527Z,93.90
2017-04-17T01:24:08.735Z,93.90
2017-04-17T01:25:06.949Z,93.90
2017-04-17T01:26:05.927Z,93.90
2017-04-17T01:27:04.136Z,93.90
2017-04-17T01:28:03.075Z,93.90
2017-04-17T01:29:01.275Z,93.80
2017-04-17T01:30:00.460Z,93.90
2017-04-17T01:30:58.663Z,94.00
2017-04-17T01:31:56.900Z,93.90
2017-04-17T01:32:55.111Z,93.90
2017-04-17T01:33:53.835Z,93.90
2017-04-17T01:34:52.291Z,94.00
2017-04-17T01:35:50.495Z,94.00
2017-04-17T01:36:48.716Z,94.10
2017-04-17T01:37:46.937Z,94.10
2017-04-17T01:38:45.156Z,94.10
2017-04-17T01:39:43.365Z,94.10
2017-04-17T01:40:41.572Z,94.20
2017-04-17T01:41:39.780Z,93.90
2017-04-17T01:42:37.996Z,94.00
2017-04-17T01:43:36.233Z,94.00
2017-04-17T01:44:34.443Z,94.00
2017-04-17T01:45:32.646Z,94.00
2017-04-17T01:46:30.846Z,94.10
2017-04-17T01:47:29.058Z,94.10
2017-04-17T01:48:27.269Z,94.10
2017-04-17T01:49:25.499Z,94.10
2017-04-17T01:50:24.742Z,93.90
2017-04-17T01:51:22.947Z,93.90
2017-04-17T01:52:21.159Z,93.90
2017-04-17T01:53:19.355Z,93.90
2017-04-17T01:54:17.901Z,93.90
2017-04-17T01:55:16.133Z,93.90
2017-04-17T01:56:14.326Z,93.90
2017-04-17T01:57:12.541Z,94.20
2017-04-17T01:58:10.742Z,93.90
2017-04-17T01:59:08.948Z,93.90
2017-04-17T02:00:07.147Z,94.00
2017-04-17T02:01:06.376Z,94.00
2017-04-17T02:02:04.591Z,94.00
2017-04-17T02:03:02.837Z,94.10
2017-04-17T02:04:01.274Z,94.10
2017-04-17T02:04:59.776Z,94.10
2017-04-17T02:05:57.995Z,94.20
2017-04-17T02:06:56.217Z,94.20
2017-04-17T02:07:54.671Z,94.20
2017-04-17T02:08:52.874Z,94.20
2017-04-17T02:09:52.205Z,94.20
2017-04-17T02:10:50.423Z,94.20
2017-04-17T02:11:48.634Z,94.20
2017-04-17T02:12:46.865Z,94.20
2017-04-17T02:13:46.063Z,94.20
2017-04-17T02:14:44.266Z,94.20
2017-04-17T02:15:42.736Z,94.10
2017-04-17T02:16:40.943Z,94.00
2017-04-17T02:17:39.158Z,94.00
2017-04-17T02:18:37.400Z,94.00
2017-04-17T02:19:35.599Z,94.00
2017-04-17T02:20:34.545Z,94.00
2017-04-17T02:21:32.762Z,94.10
2017-04-17T02:22:30.992Z,94.00
2017-04-17T02:23:29.240Z,94.00
2017-04-17T02:24:27.828Z,94.20
2017-04-17T02:25:26.031Z,93.90
2017-04-17T02:26:24.239Z,94.00
2017-04-17T02:27:22.457Z,93.90
2017-04-17T02:28:20.663Z,93.90
2017-04-17T02:29:18.946Z,94.00
2017-04-17T02:30:17.236Z,93.90
2017-04-17T02:31:15.435Z,93.90
2017-04-17T02:32:13.631Z,93.80
2017-04-17T02:33:11.843Z,93.80
2017-04-17T02:34:10.067Z,93.70
2017-04-17T02:35:08.381Z,93.70
2017-04-17T02:36:06.611Z,93.70
2017-04-17T02:37:04.811Z,93.60
2017-04-17T02:38:03.071Z,93.70
2017-04-17T02:39:01.311Z,93.80
2017-04-17T02:39:59.495Z,93.80
2017-04-17T02:40:57.679Z,93.70
2017-04-17T02:41:55.883Z,93.70
2017-04-17T02:42:54.812Z,93.70
2017-04-17T02:43:52.995Z,93.60
2017-04-17T02:44:51.184Z,93.60
2017-04-17T02:45:49.372Z,93.60
2017-04-17T02:46:47.557Z,93.60
2017-04-17T02:47:45.771Z,93.70
2017-04-17T02:48:43.959Z,93.70
2017-04-17T02:49:42.904Z,93.70
2017-04-17T02:50:41.214Z,93.50
2017-04-17T02:51:39.419Z,93.40
2017-04-17T02:52:37.887Z,93.40
2017-04-17T02:53:37.060Z,93.40
2017-04-17T02:54:35.247Z,93.40
2017-04-17T02:55:33.427Z,93.50
2017-04-17T02:56:32.367Z,93.30
2017-04-17T02:57:30.576Z,93.20
2017-04-17T02:58:29.036Z,93.30
2017-04-17T02:59:27.267Z,93.30
2017-04-17T03:00:25.446Z,93.40
2017-04-17T03:01:23.644Z,93.40
2017-04-17T03:02:21.830Z,93.40
2017-04-17T03:03:20.012Z,93.30
2017-04-17T03:04:18.655Z,93.40
2017-04-17T03:05:16.875Z,93.30
2017-04-17T03:06:15.068Z,93.20
2017-04-17T03:07:14.007Z,93.30
2017-04-17T03:08:12.211Z,93.30
2017-04-17T03:09:10.395Z,93.20
2017-04-17T03:10:08.848Z,93.10
2017-04-17T03:11:07.392Z,93.10
2017-04-17T03:12:05.598Z,93.20
2017-04-17T03:13:04.047Z,93.10
2017-04-17T03:14:02.244Z,93.00
2017-04-17T03:15:00.443Z,93.00
2017-04-17T03:15:58.627Z,93.00
2017-04-17T03:16:56.836Z,93.10
2017-04-17T03:17:55.029Z,93.10
2017-04-17T03:18:53.983Z,93.10
2017-04-17T03:19:52.163Z,93.00
2017-04-17T03:20:51.918Z,93.10
2017-04-17T03:21:50.111Z,93.10
2017-04-17T03:22:48.420Z,93.20
2017-04-17T03:23:46.703Z,93.30
2017-04-17T03:24:44.887Z,93.30
2017-04-17T03:25:43.077Z,93.30
2017-04-17T03:26:42.264Z,93.30
2017-04-17T03:27:40.455Z,93.30
2017-04-17T03:28:38.734Z,93.20
2017-04-17T03:29:36.931Z,93.30
2017-04-17T03:30:35.128Z,93.30
2017-04-17T03:31:33.402Z,93.40
2017-04-17T03:32:31.602Z,93.40
2017-04-17T03:33:29.801Z,93.30
2017-04-17T03:34:28.003Z,93.30
2017-04-17T03:35:26.926Z,93.30
2017-04-17T03:36:25.160Z,93.40
2017-04-17T03:37:23.547Z,93.30
2017-04-17T03:38:22.104Z,93.30
2017-04-17T03:39:20.312Z,93.30
2017-04-17T03:40:18.619Z,93.20
2017-04-17T03:41:16.817Z,93.30
2017-04-17T03:42:15.033Z,93.30
2017-04-17T03:43:13.347Z,93.40
2017-04-17T03:44:11.816Z,93.40
2017-04-17T03:45:10.020Z,93.50
2017-04-17T03:46:09.240Z,93.40
2017-04-17T03:47:08.183Z,93.40
2017-04-17T03:48:06.390Z,93.40
2017-04-17T03:49:05.339Z,93.70
2017-04-17T03:50:03.534Z,93.50
2017-04-17T03:51:02.015Z,93.50
2017-04-17T03:52:01.292Z,93.50
2017-04-17T03:52:59.494Z,93.50
2017-04-17T03:53:57.699Z,93.50
2017-04-17T03:54:55.906Z,93.50
2017-04-17T03:55:54.127Z,93.40
2017-04-17T03:56:52.340Z,93.50
2017-04-17T03:57:50.888Z,93.40
2017-04-17T03:58:49.092Z,93.30
2017-04-17T03:59:47.300Z,93.40
2017-04-17T04:00:46.238Z,93.40
2017-04-17T04:01:44.463Z,93.40
2017-04-17T04:02:43.012Z,93.40
2017-04-17T04:03:41.245Z,93.50
2017-04-17T04:04:39.451Z,93.50
2017-04-17T04:05:37.655Z,93.60
2017-04-17T04:06:36.595Z,93.60
2017-04-17T04:07:34.810Z,93.70
2017-04-17T04:08:33.015Z,94.00
2017-04-17T04:09:31.238Z,93.70
2017-04-17T04:10:28.687Z,93.70
2017-04-17T04:11:27.206Z,94.20
2017-04-17T04:12:25.703Z,93.80
2017-04-17T04:13:23.925Z,93.70
2017-04-17T04:14:22.126Z,93.60
2017-04-17T04:15:20.359Z,93.60
2017-04-17T04:16:18.588Z,93.60
2017-04-17T04:17:16.790Z,93.60
2017-04-17T04:18:15.003Z,93.50
2017-04-17T04:19:13.205Z,93.50
2017-04-17T04:20:11.711Z,93.30
2017-04-17T04:21:10.199Z,93.20
2017-04-17T04:22:08.407Z,93.20
2017-04-17T04:23:06.642Z,93.10
2017-04-17T04:24:05.596Z,93.10
2017-04-17T04:25:04.557Z,93.00
2017-04-17T04:26:03.043Z,93.00
2017-04-17T04:27:01.524Z,93.00
2017-04-17T04:27:59.739Z,93.00
2017-04-17T04:28:57.943Z,93.10
2017-04-17T04:29:56.171Z,93.10
2017-04-17T04:30:54.371Z,93.50
2017-04-17T04:31:52.604Z,93.20
2017-04-17T04:32:50.844Z,93.10
2017-04-17T04:33:49.284Z,93.10
2017-04-17T04:34:47.491Z,93.10
2017-04-17T04:35:45.690Z,93.20
2017-04-17T04:36:43.892Z,93.20
2017-04-17T04:37:42.106Z,93.20
2017-04-17T04:38:40.320Z,93.10
2017-04-17T04:39:38.602Z,93.00
2017-04-17T04:40:36.843Z,93.20
2017-04-17T04:41:35.043Z,93.20
2017-04-17T04:42:33.232Z,93.30
2017-04-17T04:43:31.480Z,93.10
2017-04-17T04:44:29.692Z,93.10
2017-04-17T04:45:27.895Z,93.30
2017-04-17T04:46:26.077Z,93.20
2017-04-17T04:47:24.327Z,93.30
2017-04-17T04:48:23.301Z,93.20
2017-04-17T04:49:21.495Z,93.50
2017-04-17T04:50:20.452Z,93.50
2017-04-17T04:51:18.700Z,93.50
2017-04-17T04:52:16.990Z,93.50
2017-04-17T04:53:15.180Z,93.50
2017-04-17T04:54:13.368Z,93.50
2017-04-17T04:55:11.558Z,93.40
2017-04-17T04:56:10.042Z,93.90
2017-04-17T04:57:08.240Z,93.40
2017-04-17T04:58:06.432Z,93.20
2017-04-17T04:59:04.615Z,93.20
2017-04-17T05:00:02.803Z,93.20
2017-04-17T05:01:00.998Z,93.10
2017-04-17T05:01:59.986Z,93.10
2017-04-17T05:02:58.163Z,93.00
2017-04-17T05:03:56.359Z,93.10
2017-04-17T05:04:55.297Z,93.10
2017-04-17T05:05:53.492Z,93.20
2017-04-17T05:06:51.680Z,93.20
2017-04-17T05:07:50.183Z,93.20
2017-04-17T05:08:48.390Z,93.30
2017-04-17T05:09:46.633Z,93.30
2017-04-17T05:10:44.834Z,93.60
2017-04-17T05:11:43.039Z,93.20
2017-04-17T05:12:41.243Z,93.10
2017-04-17T05:13:39.512Z,93.10
2017-04-17T05:14:37.720Z,93.20
2017-04-17T05:15:36.191Z,93.10
2017-04-17T05:16:34.382Z,93.00
2017-04-17T05:17:32.571Z,92.90
2017-04-17T05:18:30.786Z,93.00
2017-04-17T05:19:29.023Z,93.00
2017-04-17T05:20:27.267Z,93.00
2017-04-17T05:21:25.489Z,93.10
2017-04-17T05:22:23.675Z,93.10
2017-04-17T05:23:22.825Z,92.90
2017-04-17T05:24:21.168Z,92.80
2017-04-17T05:25:19.404Z,93.00
2017-04-17T05:26:17.592Z,93.40
2017-04-17T05:27:15.787Z,93.30
2017-04-17T05:28:13.978Z,93.00
2017-04-17T05:29:12.920Z,92.70
2017-04-17T05:30:11.121Z,93.00
2017-04-17T05:31:09.383Z,92.90
2017-04-17T05:32:07.856Z,92.90
2017-04-17T05:33:06.052Z,93.00
2017-04-17T05:34:04.268Z,92.80
2017-04-17T05:35:02.519Z,92.40
2017-04-17T05:36:00.727Z,92.20
2017-04-17T05:36:59.723Z,92.00
2017-04-17T05:37:57.943Z,92.00
2017-04-17T05:38:56.163Z,92.20
2017-04-17T05:39:54.378Z,92.30
2017-04-17T05:40:52.591Z,92.00
2017-04-17T05:41:51.024Z,92.10
2017-04-17T05:42:49.263Z,92.40
2017-04-17T05:43:47.490Z,92.50
2017-04-17T05:44:45.715Z,92.00
2017-04-17T05:45:43.938Z,91.70
2017-04-17T05:46:42.173Z,91.90
2017-04-17T05:47:41.155Z,92.00
2017-04-17T05:48:40.152Z,91.70
2017-04-17T05:49:38.384Z,91.60
2017-04-17T05:50:36.603Z,91.40
2017-04-17T05:51:34.839Z,91.70
2017-04-17T05:52:33.851Z,91.50
2017-04-17T05:53:32.215Z,91.60
2017-04-17T05:54:30.456Z,91.40
2017-04-17T05:55:29.026Z,91.50
2017-04-17T05:56:27.992Z,91.80
2017-04-17T05:57:26.206Z,91.70
2017-04-17T05:58:24.423Z,91.50
2017-04-17T05:59:22.659Z,91.40
2017-04-17T06:00:20.899Z,91.00
2017-04-17T06:01:19.148Z,91.00
2017-04-17T06:02:18.371Z,91.10
2017-04-17T06:03:16.589Z,91.20
2017-04-17T06:04:14.800Z,91.30
2017-04-17T06:05:13.095Z,91.60
2017-04-17T06:06:11.334Z,91.30
2017-04-17T06:07:09.560Z,91.20
2017-04-17T06:08:08.510Z,91.20
2017-04-17T06:09:06.731Z,91.10
2017-04-17T06:10:04.958Z,91.00
2017-04-17T06:11:03.179Z,91.10
2017-04-17T06:12:01.428Z,91.20
2017-04-17T06:12:59.644Z,91.10
2017-04-17T06:13:57.860Z,91.00
2017-04-17T06:14:56.076Z,90.70
2017-04-17T06:15:54.282Z,90.60
2017-04-17T06:16:52.501Z,90.70
2017-04-17T06:17:50.751Z,90.30
2017-04-17T06:18:48.972Z,90.40
2017-04-17T06:19:47.192Z,90.20
2017-04-17T06:20:45.408Z,90.50
2017-04-17T06:21:43.699Z,90.60
2017-04-17T06:22:42.340Z,90.60
2017-04-17T06:23:41.371Z,90.50
2017-04-17T06:24:39.602Z,90.30
2017-04-17T06:25:37.858Z,90.20
2017-04-17T06:26:36.071Z,90.10
2017-04-17T06:27:34.372Z,90.10
2017-04-17T06:28:32.575Z,90.10
2017-04-17T06:29:30.823Z,90.20
2017-04-17T06:30:29.100Z,89.90
2017-04-17T06:31:27.312Z,90.10
2017-04-17T06:32:25.740Z,90.10
2017-04-17T06:33:23.954Z,90.10
2017-04-17T06:34:22.176Z,90.10
2017-04-17T06:35:20.424Z,90.10
2017-04-17T06:36:18.643Z,90.00
2017-04-17T06:37:17.606Z,89.30
2017-04-17T06:38:15.799Z,88.70
2017-04-17T06:39:14.008Z,89.50
2017-04-17T06:40:12.221Z,90.20
2017-04-17T06:41:10.442Z,88.00
2017-04-17T06:42:08.636Z,88.30
2017-04-17T06:43:06.847Z,89.10
2017-04-17T06:44:05.784Z,89.30
2017-04-17T06:45:04.727Z,88.90
2017-04-17T06:46:09.605Z,90.10
2017-04-17T06:47:08.524Z,89.20
2017-04-17T06:48:06.731Z,88.90
2017-04-17T06:49:04.944Z,88.20
2017-04-17T06:50:03.907Z,88.70
2017-04-17T06:51:02.109Z,89.50
2017-04-17T06:52:01.054Z,89.40
2017-04-17T06:52:59.284Z,88.10
2017-04-17T06:53:57.483Z,87.60
2017-04-17T06:54:55.675Z,87.70
2017-04-17T06:55:54.936Z,86.70
2017-04-17T06:56:53.135Z,86.50
2017-04-17T06:57:52.089Z,87.20
2017-04-17T06:58:50.319Z,87.40
2017-04-17T06:59:48.520Z,86.40
2017-04-17T07:00:46.727Z,86.10
2017-04-17T07:01:44.929Z,85.90
2017-04-17T07:02:47.288Z,85.00
2017-04-17T07:03:45.478Z,86.30
2017-04-17T07:04:43.703Z,84.80
2017-04-17T07:05:41.899Z,82.70
2017-04-17T07:06:40.096Z,81.50
2017-04-17T07:07:39.055Z,81.10
2017-04-17T07:08:37.257Z,81.20
2017-04-17T07:09:35.449Z,81.00
2017-04-17T07:10:33.975Z,79.50
2017-04-17T07:11:32.855Z,78.20
2017-04-17T07:12:31.064Z,76.70
2017-04-17T07:13:29.271Z,75.30
2017-04-17T07:14:27.485Z,72.60
2017-04-17T07:15:25.692Z,70.10
2017-04-17T07:16:24.211Z,65.20
2017-04-17T07:17:22.438Z,64.40
2017-04-17T07:18:21.334Z,61.90
2017-04-17T07:19:19.541Z,59.70
2017-04-17T07:20:17.753Z,58.80
2017-04-17T07:21:15.947Z,57.80
2017-04-17T07:22:14.178Z,56.90
2017-04-17T07:23:12.380Z,56.70
2017-04-17T07:24:10.592Z,56.00
2017-04-17T07:25:08.807Z,53.50
2017-04-17T07:26:06.996Z,50.30
2017-04-17T07:27:05.209Z,48.80
2017-04-17T07:28:04.103Z,48.70
2017-04-17T07:29:03.055Z,45.40
2017-04-17T07:30:01.356Z,48.10
2017-04-17T07:31:00.300Z,46.60
2017-04-17T07:31:58.507Z,48.40
2017-04-17T07:32:57.438Z,47.40
2017-04-17T07:33:55.674Z,45.40
2017-04-17T07:34:53.884Z,43.90
2017-04-17T07:35:52.088Z,43.20
2017-04-17T07:36:51.046Z,41.50
2017-04-17T07:37:49.270Z,39.90
2017-04-17T07:38:47.487Z,42.40
2017-04-17T07:39:44.981Z,42.30
2017-04-17T07:40:43.516Z,42.20
2017-04-17T07:41:41.728Z,43.80
2017-04-17T07:42:39.949Z,42.10
2017-04-17T07:43:37.495Z,42.00
2017-04-17T07:44:36.446Z,43.70
2017-04-17T07:45:34.707Z,46.90
2017-04-17T07:46:32.925Z,45.30
2017-04-17T07:47:31.411Z,46.20
2017-04-17T07:48:29.614Z,48.10
2017-04-17T07:49:27.829Z,47.90
2017-04-17T07:50:26.045Z,50.00
2017-04-17T07:51:24.515Z,49.20
2017-04-17T07:52:24.403Z,49.60
2017-04-17T07:53:22.639Z,47.80
2017-04-17T07:54:20.851Z,48.60
2017-04-17T07:55:19.089Z,50.80
2017-04-17T07:56:17.304Z,50.50
2017-04-17T07:57:15.771Z,49.40
2017-04-17T07:58:13.989Z,48.50
2017-04-17T07:59:12.216Z,45.50
2017-04-17T08:00:11.172Z,43.60
2017-04-17T08:01:09.404Z,43.10
2017-04-17T08:02:07.751Z,42.70
2017-04-17T08:03:06.002Z,44.80
2017-04-17T08:04:04.955Z,43.90
2017-04-17T08:05:03.180Z,42.30
2017-04-17T08:06:01.596Z,44.00
2017-04-17T08:06:59.817Z,42.70
2017-04-17T08:07:58.024Z,42.90
2017-04-17T08:08:56.263Z,43.00
2017-04-17T08:09:54.474Z,43.30
2017-04-17T08:10:52.687Z,44.40
2017-04-17T08:11:50.904Z,45.30
2017-04-17T08:12:49.852Z,45.10
2017-04-17T08:13:48.064Z,47.00
2017-04-17T08:14:46.306Z,48.50
2017-04-17T08:15:44.524Z,48.50
2017-04-17T08:16:42.743Z,50.30
2017-04-17T08:17:40.944Z,49.70
2017-04-17T08:18:39.164Z,50.40
2017-04-17T08:19:37.413Z,48.20
2017-04-17T08:20:35.639Z,49.10
2017-04-17T08:21:33.913Z,49.50
2017-04-17T08:22:32.115Z,48.70
2017-04-17T08:23:30.745Z,48.30
2017-04-17T08:24:29.029Z,48.80
2017-04-17T08:25:27.267Z,49.30
2017-04-17T08:26:25.524Z,50.20
2017-04-17T08:27:24.483Z,50.70
2017-04-17T08:28:22.736Z,52.10
2017-04-17T08:29:21.390Z,52.10
2017-04-17T08:30:19.715Z,51.70
2017-04-17T08:31:19.047Z,53.70
2017-04-17T08:32:17.288Z,51.90
2017-04-17T08:33:15.812Z,51.10
2017-04-17T08:34:14.304Z,50.40
2017-04-17T08:35:12.511Z,49.80
2017-04-17T08:36:10.731Z,49.00
2017-04-17T08:37:08.939Z,49.10
2017-04-17T08:38:07.163Z,47.50
2017-04-17T08:39:05.356Z,47.30
2017-04-17T08:40:03.811Z,46.80
2017-04-17T08:41:02.758Z,44.30
2017-04-17T08:42:00.992Z,43.10
2017-04-17T08:42:59.183Z,42.00
2017-04-17T08:43:57.451Z,42.60
2017-04-17T08:44:56.385Z,42.70
2017-04-17T08:45:54.574Z,42.10
2017-04-17T08:46:52.759Z,44.30
2017-04-17T08:47:50.955Z,44.00
2017-04-17T08:48:49.159Z,45.00
2017-04-17T08:49:47.389Z,44.40
2017-04-17T08:50:45.664Z,46.90
2017-04-17T08:51:44.410Z,46.80
2017-04-17T08:52:43.398Z,47.80
2017-04-17T08:53:41.682Z,47.60
2017-04-17T08:54:39.879Z,48.50
2017-04-17T08:55:38.132Z,47.30
2017-04-17T08:56:37.435Z,46.40
2017-04-17T08:57:35.953Z,46.40
2017-04-17T08:58:34.176Z,47.30
2017-04-17T08:59:32.382Z,47.00
2017-04-17T09:00:30.579Z,47.40
2017-04-17T09:01:29.559Z,48.60
2017-04-17T09:02:28.496Z,49.50
2017-04-17T09:03:26.697Z,49.00
2017-04-17T09:04:25.153Z,49.70
2017-04-17T09:05:23.620Z,49.60
2017-04-17T09:06:22.207Z,49.90
2017-04-17T09:07:20.431Z,50.30
2017-04-17T09:08:18.651Z,49.60
2017-04-17T09:09:17.579Z,49.60
2017-04-17T09:10:15.767Z,49.90
2017-04-17T09:11:13.967Z,49.40
2017-04-17T09:12:13.140Z,47.90
2017-04-17T09:13:11.365Z,46.10
2017-04-17T09:14:09.574Z,42.90
2017-04-17T09:15:07.768Z,41.20
2017-04-17T09:16:05.963Z,38.90
2017-04-17T09:17:04.176Z,39.20
2017-04-17T09:18:02.371Z,37.50
2017-04-17T09:19:00.591Z,37.90
2017-04-17T09:19:58.800Z,37.60
2017-04-17T09:20:57.732Z,39.00
2017-04-17T09:21:55.928Z,38.90
2017-04-17T09:22:54.127Z,40.60
2017-04-17T09:23:52.349Z,40.80
2017-04-17T09:24:50.572Z,41.90
2017-04-17T09:25:48.771Z,43.50
2017-04-17T09:26:46.984Z,44.70
2017-04-17T09:27:45.191Z,44.30
2017-04-17T09:28:43.492Z,45.60
2017-04-17T09:29:41.695Z,46.10
2017-04-17T09:30:39.931Z,46.70
2017-04-17T09:31:38.380Z,48.00
2017-04-17T09:32:36.680Z,47.70
2017-04-17T09:33:34.867Z,48.60
2017-04-17T09:34:33.128Z,49.80
2017-04-17T09:35:31.571Z,49.30
2017-04-17T09:36:29.836Z,49.00
2017-04-17T09:37:28.048Z,48.10
2017-04-17T09:38:26.259Z,47.50
2017-04-17T09:39:24.458Z,47.60
2017-04-17T09:40:22.671Z,47.70
2017-04-17T09:41:21.628Z,46.80
2017-04-17T09:42:19.868Z,47.30
2017-04-17T09:43:18.084Z,45.90
2017-04-17T09:44:16.337Z,45.30
2017-04-17T09:45:14.635Z,45.60
2017-04-17T09:46:12.855Z,46.50
2017-04-17T09:47:11.086Z,46.60
2017-04-17T09:48:09.353Z,45.60
2017-04-17T09:49:07.563Z,43.90
2017-04-17T09:50:05.779Z,43.10
2017-04-17T09:51:03.984Z,41.60
2017-04-17T09:52:02.200Z,39.50
2017-04-17T09:53:00.416Z,37.90
2017-04-17T09:53:58.657Z,37.90
2017-04-17T09:54:56.919Z,37.00
2017-04-17T09:55:55.139Z,35.30
2017-04-17T09:56:53.696Z,32.70
2017-04-17T09:57:51.908Z,33.00
2017-04-17T09:58:50.126Z,32.00
2017-04-17T09:59:48.395Z,31.30
2017-04-17T10:00:46.602Z,32.20
2017-04-17T10:01:44.819Z,32.60
2017-04-17T10:02:43.052Z,32.60
2017-04-17T10:03:41.257Z,32.30
2017-04-17T10:04:39.567Z,30.30
2017-04-17T10:05:37.802Z,30.00
2017-04-17T10:06:36.013Z,30.00
2017-04-17T10:07:34.239Z,30.20
2017-04-17T10:08:33.515Z,30.00
2017-04-17T10:09:31.854Z,28.60
2017-04-17T10:10:30.072Z,27.70
2017-04-17T10:11:28.310Z,26.90
2017-04-17T10:12:26.526Z,28.00
2017-04-17T10:13:24.740Z,28.30
2017-04-17T10:14:22.952Z,28.00
2017-04-17T10:15:21.167Z,28.20
2017-04-17T10:16:19.393Z,28.30
2017-04-17T10:17:17.641Z,28.10
2017-04-17T10:18:15.857Z,27.30
2017-04-17T10:19:14.350Z,28.20
2017-04-17T10:20:12.563Z,27.70
2017-04-17T10:21:10.782Z,27.70
2017-04-17T10:22:08.995Z,27.80
2017-04-17T10:23:07.260Z,28.00
2017-04-17T10:24:05.522Z,28.40
2017-04-17T10:25:03.765Z,28.20
2017-04-17T10:26:01.992Z,27.10
2017-04-17T10:27:00.199Z,28.90
2017-04-17T10:27:58.512Z,29.40
2017-04-17T10:28:56.772Z,29.00
2017-04-17T10:29:54.992Z,29.40
2017-04-17T10:30:53.223Z,30.00
2017-04-17T10:31:51.436Z,28.10
2017-04-17T10:32:49.657Z,28.10
2017-04-17T10:33:47.877Z,28.50
2017-04-17T10:34:46.116Z,27.80
2017-04-17T10:35:44.332Z,28.90
2017-04-17T10:36:42.571Z,30.00
2017-04-17T10:37:40.818Z,30.50
2017-04-17T10:38:39.808Z,31.20
2017-04-17T10:39:38.026Z,31.70
2017-04-17T10:40:36.276Z,32.60
2017-04-17T10:41:34.484Z,33.00
2017-04-17T10:42:32.704Z,32.60
2017-04-17T10:43:31.659Z,33.60
2017-04-17T10:44:29.888Z,34.10
2017-04-17T10:45:28.115Z,34.90
2017-04-17T10:46:26.347Z,35.90
2017-04-17T10:47:24.563Z,35.60
2017-04-17T10:48:22.854Z,34.50
2017-04-17T10:49:21.826Z,34.60
2017-04-17T10:50:20.283Z,34.80
2017-04-17T10:51:18.515Z,33.60
2017-04-17T10:52:16.752Z,33.10
2017-04-17T10:53:15.708Z,33.60
2017-04-17T10:54:14.028Z,33.80
2017-04-17T10:55:12.539Z,34.60
2017-04-17T10:56:10.771Z,34.80
2017-04-17T10:57:08.971Z,36.00
2017-04-17T10:58:07.471Z,37.50
2017-04-17T10:59:05.730Z,38.50
2017-04-17T11:00:04.205Z,39.40
2017-04-17T11:01:02.412Z,40.00
2017-04-17T11:02:00.621Z,40.30
2017-04-17T11:02:58.836Z,40.60
2017-04-17T11:03:57.080Z,40.10
2017-04-17T11:04:55.468Z,38.30
2017-04-17T11:05:53.688Z,37.10
2017-04-17T11:06:51.920Z,35.50
2017-04-17T11:07:50.145Z,34.80
2017-04-17T11:08:49.091Z,33.90
2017-04-17T11:09:47.588Z,32.70
2017-04-17T11:10:45.800Z,31.10
2017-04-17T11:11:44.040Z,30.00
2017-04-17T11:12:42.267Z,30.10
2017-04-17T11:13:40.484Z,30.70
2017-04-17T11:14:38.732Z,31.60
2017-04-17T11:15:36.980Z,32.80
2017-04-17T11:16:35.211Z,34.60
2017-04-17T11:17:34.039Z,37.80
2017-04-17T11:18:32.276Z,38.30
2017-04-17T11:19:30.736Z,36.90
2017-04-17T11:20:28.942Z,36.70
2017-04-17T11:21:27.200Z,37.60
2017-04-17T11:22:26.143Z,38.10
2017-04-17T11:23:24.371Z,38.40
2017-04-17T11:24:22.577Z,38.50
2017-04-17T11:25:20.815Z,37.60
2017-04-17T11:26:19.027Z,39.00
2017-04-17T11:27:17.590Z,37.80
2017-04-17T11:28:16.047Z,37.70
2017-04-17T11:29:15.000Z,39.00
2017-04-17T11:30:13.219Z,38.60
2017-04-17T11:31:11.429Z,39.40
2017-04-17T11:32:09.677Z,40.00
2017-04-17T11:33:08.668Z,40.90
2017-04-17T11:34:06.873Z,41.40
2017-04-17T11:35:05.085Z,42.20
2017-04-17T11:36:04.061Z,43.60
2017-04-17T11:37:02.268Z,44.50
2017-04-17T11:38:00.483Z,45.40
2017-04-17T11:38:58.760Z,44.50
2017-04-17T11:39:57.700Z,44.70
2017-04-17T11:40:55.908Z,44.70
2017-04-17T11:41:55.172Z,44.70
2017-04-17T11:42:53.372Z,44.90
2017-04-17T11:43:51.572Z,43.90
2017-04-17T11:44:49.805Z,42.40
2017-04-17T11:45:48.007Z,40.50
2017-04-17T11:46:46.573Z,38.60
2017-04-17T11:47:44.755Z,38.30
2017-04-17T11:48:42.959Z,37.00
2017-04-17T11:49:41.887Z,35.60
2017-04-17T11:50:40.412Z,33.60
2017-04-17T11:51:39.359Z,32.90
2017-04-17T11:52:37.624Z,31.70
2017-04-17T11:53:35.832Z,30.10
2017-04-17T11:54:34.764Z,29.70
2017-04-17T11:55:32.977Z,30.00
2017-04-17T11:56:31.193Z,29.60
2017-04-17T11:57:29.392Z,29.10
2017-04-17T11:58:27.588Z,29.20
2017-04-17T11:59:25.781Z,29.50
2017-04-17T12:00:24.524Z,30.00
2017-04-17T12:01:22.706Z,29.40
2017-04-17T12:02:21.259Z,29.20
2017-04-17T12:03:19.466Z,29.10
2017-04-17T12:04:17.244Z,29.10
2017-04-17T12:05:15.452Z,29.00
2017-04-17T12:06:12.884Z,28.90
2017-04-17T12:07:11.822Z,28.30
2017-04-17T12:08:10.060Z,28.80
2017-04-17T12:09:08.268Z,29.00
2017-04-17T12:10:06.476Z,29.20
2017-04-17T12:11:04.677Z,29.60
2017-04-17T12:12:02.883Z,30.00
2017-04-17T12:13:01.097Z,30.30
2017-04-17T12:13:59.321Z,30.70
2017-04-17T12:14:57.764Z,30.90
2017-04-17T12:15:55.968Z,30.20
2017-04-17T12:16:54.908Z,30.10
2017-04-17T12:17:53.381Z,29.10
2017-04-17T12:18:51.578Z,28.70
2017-04-17T12:19:49.799Z,28.90
2017-04-17T12:20:48.011Z,29.30
2017-04-17T12:21:46.208Z,29.70
2017-04-17T12:22:44.419Z,28.70
2017-04-17T12:23:44.070Z,28.50
2017-04-17T12:24:42.264Z,28.90
2017-04-17T12:25:40.498Z,29.60
2017-04-17T12:26:38.690Z,30.00
2017-04-17T12:27:36.883Z,29.90
2017-04-17T12:28:35.082Z,29.00
2017-04-17T12:29:33.280Z,29.10
2017-04-17T12:30:32.394Z,29.30
2017-04-17T12:31:30.623Z,29.70